首页
METAR-TAF:

METAR-TAF

机场 :

布達佩斯李斯特·費倫茨國際機場

布达佩斯, 匈牙利

纬度: 47-26N, 经度: 019-16E, 海拔: 151米

当前天气观测

该预报发布于21分钟前的19:00 UTC
风速10节,风向西
温度 12°C
湿度 71%
气压 1024 hPa
能见度10公里或以上
1500米以下无云,无积雨云

METAR: LHBP 221900Z 28010KT CAVOK 12/07 Q1024 NOSIG

时间: 21:21 (19:21 UTC)

预报

该预报发布于2小时和6分钟前的17:15 UTC
预报有效从22日的 18点(UTC)到 23日的 18点(UTC)
风速6节,风向西北
能见度10公里或以上
1500米以下无云,无积雨云
成为
从 23日的 06点(UTC)到 23日的 09点(UTC)
风速12节,风向西转西北
少量云层高于3500英尺
多云层高于20000英尺
成为
从 23日的 10点(UTC)到 23日的 13点(UTC)
风速17节,风向西
能见度10公里或以上
1500米以下无云,无积雨云
成为
从 23日的 16点(UTC)到 23日的 18点(UTC)
散云层高于4000英尺
多云层高于7000英尺

TAF: LHBP 221715Z 2218/2318 31006KT CAVOK BECMG 2306/2309 30012KT FEW035 BKN200 BECMG 2310/2313 27017KT CAVOK BECMG 2316/2318 SCT040 BKN070

超过4000个机场的气象观测和天气预报(METAR&TAF报告)。

可查询的气象台以黄色和红色小点在地图上表示。

将鼠标移到小点上方,可查看气象台名称。

然后点击查看天气观测和预报。

如需切换地图:点击带黑十字的绿色按钮放大地图;点击带横线的绿色按钮缩小地图;或者点击绿色箭头查看邻近地区的地图。


METAR-TAF: